LIO weather

Limon International Airport
Puerto Limon, Limon, Costa Rica

Public forecast

Using degrees Celsius for public forecast. Weather courtesy of forecast.io.

METAR (pilot weather report)

Retrieved 2019/05/26 15:00 UTC (21 minutes ago):

MRLM 261500Z 07005KT 9999 FEW020 BKN200 27/23 A2989

TAF (pilot weather forecast)

Retrieved 2019/05/26 12:18 UTC (3 hours ago):

TAF MRLM 261100Z 2612/2712 26004KT 9999 SCT020 BKN120 TX30/2618Z TN22/2612Z TEMPO 2612/2615 DZ BKN020 BECMG 2614/2616 09008KT TEMPO 2621/2702 5000 RA BKN015 BECMG 2700/2702 24003KT